모두
Coen Airport (Coen, Queensland) CUQ 기상
|
Coen, Queensland (CUQ / YCOE)
맑은 하늘
잔잔한 바람 |
|
20 °C |
CUQ 터미널 지역 예측
| Date | Time (AEST) | Flight Rules | Wind Dir. | Speed | Type | Height AGL (ft) | Visibility | Remarks | ||||||
|---|---|---|---|---|---|---|---|---|---|---|---|---|---|---|
최근 CUQ METAR 이력
| Date | Time (AEST) | Flight Rules | Wind Dir. | Speed | Type | Height AGL (ft) | Visibility | Temp (°C) | Temp (°F) | Dew Point (°C) | Dew Point (°F) | Rel. Humid. | Pressure | Density Altitude | Remarks |
|---|---|---|---|---|---|---|---|---|---|---|---|---|---|---|---|
| 05-5월 | 01:00 | VFR | Calm | 10000 meters | 20° | 68° | 20° | 68° | 100% | 1013 mb | 1,138 ft | ||||
| 05-5월 | 00:00 | VFR | Calm | 10000 meters | 20° | 68° | 20° | 68° | 100% | 1013 mb | 1,138 ft | ||||
| 04-5월 | 23:00 | VFR | Calm | 10000 meters | 21° | 69° | 20° | 68° | 94% | 1014 mb | 1,229 ft | ||||
| 04-5월 | 22:00 | VFR | Calm | 10000 meters | 21° | 69° | 20° | 68° | 94% | 1014 mb | 1,229 ft | ||||
| 04-5월 | 21:00 | VFR | Calm | 10000 meters | 22° | 71° | 20° | 68° | 88% | 1014 mb | 1,349 ft | ||||
| 04-5월 | 20:00 | VFR | 80° | 3 kt | 10000 meters | 22° | 71° | 20° | 68° | 88% | 1013 mb | 1,378 ft | |||
| 04-5월 | 19:00 | VFR | 80° | 1 kt | 10000 meters | 24° | 75° | 20° | 68° | 78% | 1012 mb | 1,648 ft | |||
| 04-5월 | 18:00 | VFR | 150° | 6 kt | 10000 meters | 26° | 78° | 19° | 66° | 65% | 1011 mb | 1,917 ft | |||
| 04-5월 | 17:00 | VFR | 150° | 7 kt | Few |
4,100 |
10000 meters | 28° | 82° | 19° | 66° | 58% | 1011 mb | 2,157 ft | |
| 04-5월 | 16:00 | VFR | 90° | 9 kt | 10000 meters | 29° | 84° | 20° | 68° | 58% | 1011 mb | 2,277 ft | |||
| 04-5월 | 15:00 | VFR | 80° | 11 kt | 10000 meters | 30° | 86° | 20° | 68° | 55% | 1011 mb | 2,397 ft | |||
| 04-5월 | 14:00 | VFR | 100° | 10 kt | 10000 meters | 30° | 86° | 20° | 68° | 55% | 1011 mb | 2,397 ft | |||
| 04-5월 | 13:00 | VFR | 100° | 7 kt | 10000 meters | 30° | 86° | 20° | 68° | 55% | 1012 mb | 2,368 ft | |||
| 04-5월 | 12:00 | VFR | 90° | 8 kt | 10000 meters | 30° | 86° | 20° | 68° | 55% | 1013 mb | 2,338 ft | |||
| 04-5월 | 11:00 | VFR | 60° | 7 kt | 10000 meters | 29° | 84° | 19° | 66° | 55% | 1014 mb | 2,189 ft | |||
| 04-5월 | 10:00 | VFR | 100° | 4 kt | 10000 meters | 27° | 80° | 20° | 68° | 66% | 1014 mb | 1,949 ft | |||
| 04-5월 | 09:00 | VFR | Calm | 10000 meters | 25° | 77° | 20° | 68° | 74% | 1013 mb | 1,738 ft | ||||
| 04-5월 | 08:00 | VFR | Calm | 10000 meters | 22° | 71° | 21° | 69° | 94% | 1013 mb | 1,378 ft | ||||
| 04-5월 | 07:00 | VFR | Calm | 10000 meters | 18° | 64° | 18° | 64° | 100% | 1012 mb | 928 ft | ||||
| 04-5월 | 06:00 | VFR | Calm | 10000 meters | 18° | 64° | 17° | 62° | 94% | 1012 mb | 928 ft | ||||
| 04-5월 | 05:00 | VFR | Calm | 10000 meters | 18° | 64° | 17° | 62° | 94% | 1012 mb | 928 ft | ||||
| 04-5월 | 04:00 | VFR | Calm | 10000 meters | 18° | 64° | 17° | 62° | 94% | 1012 mb | 928 ft | ||||
| 04-5월 | 03:00 | VFR | Calm | 10000 meters | 20° | 68° | 18° | 64° | 88% | 1012 mb | 1,168 ft | ||||
| 04-5월 | 02:00 | VFR | 120° | 1 kt | 10000 meters | 21° | 69° | 18° | 64° | 83% | 1012 mb | 1,288 ft |
로그인
| 귀하의 브라우저는 지원되지 않습니다.. 브라우저를 업그레이드하세요 |
